Skip Navigation Links Skip Navigation Links

Current Weather

Anaktuvuk Pass, Alaska

For information only: do not use for flight planning or navigation.
Latest weather
Observation time Tuesday, October 26, 2021 8:56 PM AKDT
Local time Tuesday, October 26, 2021 9:58 PM AKDT
Flight conditions Low Instrument Meteorological Conditions
Winds
Wind direction Northeast (50°)
Wind speed 9 mph
Visibility 10 mi.
Sky condition
Ceiling 300 ft. overcast
Cloud layer overcast 300 ft.
Temperature 20°F
Dewpoint 18°F
Altimeter 29.34 in.Hg
Derived measurements
Relative humidity 92%
Wind chill 9°F
Density altitude 147 ft.
Sea-level pressure 29.49 in.Hg
Remarks
Fully automated report.
Automated weather observing station with precipitation discriminator.
Freezing rain sensor not operating.
METAR PAKP 270456Z AUTO 05008KT 10SM OVC003 M07/M08 A2934 RMK AO2 SLP985 T10671078 FZRANO

Settings

Location code

InnerDrive.Weather 4.0.6770.0 Release CLR 4.0.30319.42000
Copyright ©2018 Inner Drive Technology. All rights reserved. Portions Copyright ©1986-2018 David Braverman.

Find weather

Site navigation


Skip Navigation Links

Place info

Page info

PayPal - The safer, easier way to pay online!

Return home.

Copyright ©2021 Inner Drive Technology. Purveyors of fine, hand-crafted computer software. Page printed 2021-10-27T05:58:45 UTC.